Time;durP1;ratioP1;P1;durP2;ratioP2;P2;SDS_P1;SDS_P2;PMS_P1;PMS_P2;Temp;Humidity;BMP_temperature;BMP_pressure;BME280_temperature;BME280_humidity;BME280_pressure;Samples;Min_cycle;Max_cycle;Signal;HPM_P1;HPM_P2
2020/12/18 00:01:27;;;;;;;6.90;6.30;;;;;;;4.49;76.78;96448.50;5093306;28;20827;-75
2020/12/18 00:03:55;;;;;;;11.77;6.93;;;;;;;4.58;76.31;96453.81;5093212;28;20208;-74
2020/12/18 00:06:22;;;;;;;31.80;7.87;;;;;;;4.53;75.31;96449.06;5093211;28;20199;-76
2020/12/18 00:08:48;;;;;;;6.67;6.07;;;;;;;4.53;75.48;96454.16;5093565;28;20204;-75
2020/12/18 00:11:21;;;;;;;6.70;6.10;;;;;;;4.59;75.13;96445.25;5092985;28;20200;-75
2020/12/18 00:13:47;;;;;;;9.50;6.70;;;;;;;4.44;75.12;96453.13;5052890;28;20200;-74
2020/12/18 00:16:13;;;;;;;7.77;6.27;;;;;;;4.49;75.71;96455.31;5070654;28;20224;-75
2020/12/18 00:18:39;;;;;;;7.23;6.57;;;;;;;4.49;75.70;96453.59;5093028;28;20196;-76
2020/12/18 00:21:05;;;;;;;8.03;6.47;;;;;;;4.54;75.25;96455.78;5092539;28;20203;-75
2020/12/18 00:23:33;;;;;;;6.53;5.97;;;;;;;4.56;74.39;96458.22;5093112;28;20196;-75
2020/12/18 00:25:59;;;;;;;6.10;5.53;;;;;;;4.56;73.89;96448.84;5092265;28;20298;-75
2020/12/18 00:28:25;;;;;;;6.83;6.23;;;;;;;4.45;74.74;96453.94;5092956;28;20224;-74
2020/12/18 00:30:50;;;;;;;6.67;6.07;;;;;;;4.49;74.32;96458.69;5092517;28;20225;-75
2020/12/18 00:33:16;;;;;;;6.90;6.30;;;;;;;4.52;74.65;96455.09;5070876;28;20674;-75
2020/12/18 00:35:42;;;;;;;6.20;5.60;;;;;;;4.53;74.13;96461.00;5092586;28;20220;-74
2020/12/18 00:38:09;;;;;;;6.50;5.90;;;;;;;4.57;73.72;96457.31;5092524;28;20184;-74
2020/12/18 00:40:36;;;;;;;6.30;5.77;;;;;;;4.59;74.07;96461.34;5092771;28;20200;-75
2020/12/18 00:43:01;;;;;;;6.60;5.90;;;;;;;4.60;73.57;96460.44;5092540;28;20196;-75
2020/12/18 00:45:27;;;;;;;6.63;5.93;;;;;;;4.45;73.98;96453.94;5092384;28;20760;-75
2020/12/18 00:47:53;;;;;;;6.97;6.37;;;;;;;4.37;73.46;96452.00;5092319;28;20220;-75
2020/12/18 00:50:19;;;;;;;6.37;5.77;;;;;;;4.33;73.89;96450.59;5092712;28;20233;-75
2020/12/18 00:52:45;;;;;;;6.77;6.17;;;;;;;4.07;74.90;96455.09;5092316;28;20200;-74
2020/12/18 00:55:12;;;;;;;6.90;6.30;;;;;;;3.80;77.12;96457.97;5092497;28;20224;-74
2020/12/18 00:57:38;;;;;;;7.00;6.40;;;;;;;3.90;77.12;96465.75;5092143;28;20702;-74
2020/12/18 01:00:05;;;;;;;7.10;6.40;;;;;;;4.12;76.80;96462.41;5092297;28;20208;-75
2020/12/18 01:02:31;;;;;;;6.73;6.13;;;;;;;4.22;76.14;96473.53;5092048;28;20192;-76
2020/12/18 01:04:56;;;;;;;6.50;5.90;;;;;;;4.31;75.86;96483.03;5091840;28;20729;-75
2020/12/18 01:07:22;;;;;;;7.23;6.53;;;;;;;4.26;75.52;96474.91;5091883;28;20216;-75
2020/12/18 01:09:48;;;;;;;7.80;6.13;;;;;;;4.33;75.25;96473.53;5092569;28;20211;-75
2020/12/18 01:12:15;;;;;;;6.87;6.23;;;;;;;4.37;74.81;96479.22;5092035;28;20257;-75
2020/12/18 01:14:41;;;;;;;5.97;5.47;;;;;;;4.39;74.44;96479.91;5091846;28;20228;-76
2020/12/18 01:17:08;;;;;;;6.43;5.83;;;;;;;4.46;74.65;96476.75;5091753;28;20245;-75
2020/12/18 01:19:36;;;;;;;6.13;5.53;;;;;;;4.31;74.33;96472.84;5092214;28;20196;-76
2020/12/18 01:22:02;;;;;;;7.00;6.30;;;;;;;4.07;75.80;96475.47;5091746;28;20196;-75
2020/12/18 01:24:28;;;;;;;6.30;5.70;;;;;;;4.03;76.21;96471.56;5091536;28;20219;-75
2020/12/18 01:26:54;;;;;;;6.53;5.97;;;;;;;3.90;77.41;96465.75;5092471;28;20230;-75
2020/12/18 01:29:21;;;;;;;6.77;6.17;;;;;;;3.90;77.26;96473.38;5091353;28;20274;-75
2020/12/18 01:31:47;;;;;;;7.00;6.30;;;;;;;3.93;77.40;96478.25;5092331;28;20200;-75
2020/12/18 01:34:13;;;;;;;6.83;6.10;;;;;;;4.00;77.54;96476.06;5083934;28;20648;-75
2020/12/18 01:36:39;;;;;;;6.90;6.30;;;;;;;3.89;77.44;96470.94;5071551;28;20211;-75
2020/12/18 01:39:05;;;;;;;7.17;6.47;;;;;;;3.90;77.91;96472.56;5055550;28;20197;-75
2020/12/18 01:41:32;;;;;;;7.23;6.30;;;;;;;3.97;77.42;96469.47;5080598;28;20564;-76
2020/12/18 01:43:58;;;;;;;6.77;6.17;;;;;;;3.95;77.73;96467.94;5091648;28;20200;-76
2020/12/18 01:46:27;;;;;;;6.93;6.33;;;;;;;4.05;77.31;96467.13;5091565;28;20206;-75
2020/12/18 01:48:54;;;;;;;6.63;6.03;;;;;;;4.17;76.67;96473.06;5091764;28;20273;-75
2020/12/18 01:51:20;;;;;;;6.63;6.03;;;;;;;4.24;76.56;96476.75;5091699;28;20219;-76
2020/12/18 01:53:47;;;;;;;6.40;5.80;;;;;;;4.36;76.20;96459.75;5091712;28;20694;-75
2020/12/18 01:56:13;;;;;;;6.93;6.30;;;;;;;4.40;75.95;96456.03;5091235;28;20223;-75
2020/12/18 01:58:40;;;;;;;6.70;6.00;;;;;;;4.50;75.75;96467.16;5092011;28;20253;-75
2020/12/18 02:01:07;;;;;;;6.97;6.27;;;;;;;4.54;74.94;96465.19;5092921;28;20674;-76
2020/12/18 02:03:35;;;;;;;6.50;5.90;;;;;;;4.54;74.70;96457.53;5095527;28;20196;-76
2020/12/18 02:06:04;;;;;;;6.17;5.57;;;;;;;4.51;74.60;96454.28;5094917;28;20220;-76
2020/12/18 02:08:30;;;;;;;7.07;6.47;;;;;;;4.48;74.70;96449.41;5095132;28;20212;-77
2020/12/18 02:10:57;;;;;;;7.07;6.47;;;;;;;4.45;74.66;96444.53;5095671;28;20212;-77
2020/12/18 02:13:24;;;;;;;6.73;6.13;;;;;;;4.23;75.64;96443.78;5094968;28;20199;-78
2020/12/18 02:15:51;;;;;;;7.03;6.40;;;;;;;4.20;76.52;96444.00;5094738;28;20285;-75
2020/12/18 02:18:18;;;;;;;6.90;6.30;;;;;;;4.25;76.63;96441.88;5095944;28;20226;-77
2020/12/18 02:20:45;;;;;;;7.00;6.37;;;;;;;4.33;76.00;96437.84;5095443;28;20291;-77
2020/12/18 02:23:12;;;;;;;7.33;6.70;;;;;;;4.35;76.07;96428.34;5095009;28;20197;-77
2020/12/18 02:25:39;;;;;;;6.70;6.10;;;;;;;4.44;75.78;96430.19;5094503;28;20212;-75
2020/12/18 02:28:06;;;;;;;6.53;5.93;;;;;;;4.48;75.93;96438.41;5095550;28;20694;-77
2020/12/18 02:30:32;;;;;;;7.37;6.70;;;;;;;4.59;75.77;96429.94;5094976;28;20192;-77
2020/12/18 02:32:58;;;;;;;6.93;6.27;;;;;;;4.63;75.49;96432.13;5094837;28;20257;-76
2020/12/18 02:35:24;;;;;;;6.43;5.83;;;;;;;4.65;75.77;96427.72;5095981;28;20361;-75
2020/12/18 02:37:53;;;;;;;7.37;6.50;;;;;;;4.70;75.22;96428.16;5094693;28;20192;-75
2020/12/18 02:40:19;;;;;;;6.10;5.60;;;;;;;4.75;75.09;96430.38;5095061;28;20189;-75
2020/12/18 02:42:45;;;;;;;7.07;6.37;;;;;;;4.78;74.37;96432.69;5095299;28;20610;-76
2020/12/18 02:45:11;;;;;;;6.27;5.73;;;;;;;4.82;74.57;96423.84;5094236;28;20219;-75
2020/12/18 02:47:37;;;;;;;6.73;6.03;;;;;;;4.85;74.08;96416.75;5095772;28;20223;-77
2020/12/18 02:50:04;;;;;;;6.50;5.90;;;;;;;4.85;74.09;96431.25;5094999;28;20204;-75
2020/12/18 02:52:30;;;;;;;6.03;5.50;;;;;;;4.87;73.89;96429.41;5094750;28;20223;-77
2020/12/18 02:54:56;;;;;;;6.40;5.80;;;;;;;4.78;73.77;96423.28;5094267;28;20216;-76
2020/12/18 02:57:21;;;;;;;6.27;5.67;;;;;;;4.56;74.47;96425.88;5094676;28;20196;-77
2020/12/18 02:59:47;;;;;;;6.37;5.80;;;;;;;4.50;74.85;96427.16;5094115;28;20207;-77
2020/12/18 03:02:14;;;;;;;6.53;5.93;;;;;;;4.61;75.15;96420.44;5094681;28;20208;-75
2020/12/18 03:04:40;;;;;;;7.10;6.40;;;;;;;4.56;75.05;96420.78;5094221;28;20223;-77
2020/12/18 03:07:06;;;;;;;6.53;5.93;;;;;;;4.60;75.17;96422.19;5094413;28;20220;-77
2020/12/18 03:09:32;;;;;;;6.70;6.00;;;;;;;4.68;75.00;96427.47;5094684;28;20196;-77
2020/12/18 03:11:57;;;;;;;6.57;5.93;;;;;;;4.49;75.30;96420.44;5093542;28;20249;-77
2020/12/18 03:14:23;;;;;;;6.40;5.80;;;;;;;4.55;75.57;96426.00;5092992;28;20224;-75
2020/12/18 03:16:49;;;;;;;7.07;6.47;;;;;;;4.40;76.49;96428.00;5094361;28;20203;-78
2020/12/18 03:19:16;;;;;;;7.30;6.60;;;;;;;4.22;77.21;96421.75;5094247;28;20203;-77
2020/12/18 03:21:42;;;;;;;6.83;6.23;;;;;;;4.17;77.27;96429.75;5094124;28;20188;-77
2020/12/18 03:24:08;;;;;;;7.53;6.83;;;;;;;4.11;78.32;96433.56;5093835;28;20690;-75
2020/12/18 03:26:34;;;;;;;7.10;6.50;;;;;;;4.26;77.87;96428.22;5094015;28;20253;-77
2020/12/18 03:28:59;;;;;;;8.07;6.70;;;;;;;4.24;77.73;96425.78;5094089;28;20216;-77
2020/12/18 03:31:25;;;;;;;7.17;6.47;;;;;;;4.20;78.40;96423.63;5093834;28;20248;-78
2020/12/18 03:33:51;;;;;;;7.60;6.53;;;;;;;4.16;78.55;96421.28;5093623;28;20283;-76
2020/12/18 03:36:18;;;;;;;6.80;6.20;;;;;;;4.29;78.36;96425.44;5093763;28;20207;-76
2020/12/18 03:38:44;;;;;;;6.97;6.27;;;;;;;4.44;77.52;96422.53;5093923;28;20671;-74
2020/12/18 03:41:10;;;;;;;7.30;6.37;;;;;;;4.55;76.90;96419.16;5094029;28;20196;-77
2020/12/18 03:43:36;;;;;;;7.73;6.07;;;;;;;4.64;76.47;96413.34;5093453;28;20211;-76
2020/12/18 03:46:02;;;;;;;7.73;7.03;;;;;;;4.64;76.29;96412.53;5093762;28;20207;-77
2020/12/18 03:48:27;;;;;;;7.53;6.57;;;;;;;4.70;76.04;96419.72;5093462;28;20220;-78
2020/12/18 03:50:54;;;;;;;7.30;6.60;;;;;;;4.76;75.90;96416.69;5093263;28;20615;-77
2020/12/18 03:53:20;;;;;;;6.93;6.23;;;;;;;4.72;75.85;96418.66;5093568;28;20200;-77
2020/12/18 03:55:46;;;;;;;6.60;6.00;;;;;;;4.75;76.05;96418.44;5093177;28;20219;-76
2020/12/18 03:58:12;;;;;;;6.97;6.27;;;;;;;4.83;75.45;96417.81;5093688;28;20200;-77
2020/12/18 04:00:38;;;;;;;6.87;6.27;;;;;;;4.86;74.96;96413.28;5093268;28;20616;-76
2020/12/18 04:03:05;;;;;;;6.43;5.83;;;;;;;4.90;75.22;96415.59;5093290;28;20196;-77
2020/12/18 04:05:31;;;;;;;7.43;6.70;;;;;;;4.90;75.04;96415.59;5092579;28;20216;-77
2020/12/18 04:07:57;;;;;;;7.10;6.10;;;;;;;4.90;74.56;96420.69;5093072;28;20683;-77
2020/12/18 04:10:24;;;;;;;7.00;6.30;;;;;;;4.91;75.28;96425.69;5093365;28;20265;-77
2020/12/18 04:12:50;;;;;;;6.90;6.30;;;;;;;4.94;74.92;96425.44;5093331;28;20207;-77
2020/12/18 04:15:16;;;;;;;6.83;6.17;;;;;;;4.93;75.04;96438.31;5092590;28;20224;-77
2020/12/18 04:17:42;;;;;;;6.50;5.90;;;;;;;4.93;75.48;96431.47;5092961;28;20200;-78
2020/12/18 04:20:08;;;;;;;6.60;6.00;;;;;;;4.97;75.19;96444.81;5093129;28;20207;-78
2020/12/18 04:22:34;;;;;;;7.53;6.77;;;;;;;5.01;75.59;96443.63;5092823;28;20200;-78
2020/12/18 04:25:00;;;;;;;6.80;6.20;;;;;;;4.92;75.58;96441.81;5092302;28;20224;-77
2020/12/18 04:27:27;;;;;;;7.77;6.97;;;;;;;4.95;75.62;96450.03;5093090;28;20220;-77
2020/12/18 04:29:52;;;;;;;7.77;6.97;;;;;;;4.97;75.51;96447.38;5093285;28;20197;-77
2020/12/18 04:32:18;;;;;;;6.93;6.33;;;;;;;4.93;75.10;96448.53;5093545;28;20736;-75
2020/12/18 04:34:44;;;;;;;7.30;6.60;;;;;;;4.74;75.45;96442.31;5092293;28;20224;-76
2020/12/18 04:37:10;;;;;;;7.37;6.67;;;;;;;4.55;75.74;96431.91;5092738;28;20200;-76
2020/12/18 04:39:36;;;;;;;7.13;6.53;;;;;;;4.47;76.88;96446.97;5092742;28;20200;-75
2020/12/18 04:42:02;;;;;;;6.73;6.13;;;;;;;4.54;76.46;96449.88;5092536;28;20683;-76
2020/12/18 04:44:29;;;;;;;6.70;6.10;;;;;;;4.58;76.13;96439.34;5092573;28;20227;-77
2020/12/18 04:46:56;;;;;;;7.10;6.47;;;;;;;4.45;76.51;96431.00;5092441;28;20215;-77
2020/12/18 04:49:23;;;;;;;6.93;6.27;;;;;;;4.37;76.81;96434.16;5084877;28;20231;-77
2020/12/18 04:51:53;;;;;;;7.20;6.50;;;;;;;4.45;76.79;96438.63;5072526;28;20196;-77
2020/12/18 04:54:21;;;;;;;6.90;6.17;;;;;;;4.48;76.75;96444.31;5066287;28;20227;-77
2020/12/18 04:56:50;;;;;;;6.63;6.03;;;;;;;4.57;75.99;96439.44;5053009;28;20205;-75
2020/12/18 04:59:22;;;;;;;6.30;5.77;;;;;;;4.57;75.74;96436.91;5062747;28;20219;-73
2020/12/18 05:01:52;;;;;;;7.93;6.50;;;;;;;4.54;75.77;96435.41;5093336;28;20204;-76
2020/12/18 05:04:21;;;;;;;6.90;6.30;;;;;;;4.56;75.66;96448.84;5092857;28;20668;-76
2020/12/18 05:06:47;;;;;;;6.57;5.97;;;;;;;4.54;76.04;96434.59;5092961;28;20671;-75
2020/12/18 05:09:13;;;;;;;8.80;6.43;;;;;;;4.48;75.95;96443.50;5092797;28;20196;-75
2020/12/18 05:11:39;;;;;;;6.93;6.20;;;;;;;4.39;76.25;96437.38;5093362;28;20234;-75
2020/12/18 05:14:05;;;;;;;6.60;5.97;;;;;;;4.43;76.17;96438.75;5091320;28;20196;-75
2020/12/18 05:16:31;;;;;;;6.47;5.90;;;;;;;4.24;76.90;96445.38;5092887;28;20242;-75
2020/12/18 05:19:03;;;;;;;6.10;5.50;;;;;;;4.16;78.07;96445.97;5091319;28;20199;-75
2020/12/18 05:21:30;;;;;;;6.33;5.80;;;;;;;4.27;77.76;96445.13;5085244;28;20189;-76
2020/12/18 05:23:56;;;;;;;6.70;6.10;;;;;;;4.40;76.84;96446.66;5092061;28;20200;-75
2020/12/18 05:26:27;;;;;;;6.93;6.30;;;;;;;4.44;76.56;96448.03;5092383;28;20250;-75
2020/12/18 05:29:03;;;;;;;7.40;6.53;;;;;;;4.44;76.59;96449.75;5092580;28;20277;-75
2020/12/18 05:31:29;;;;;;;6.60;5.90;;;;;;;4.46;76.49;96447.91;5052000;28;20201;-75
2020/12/18 05:33:55;;;;;;;6.17;5.57;;;;;;;4.48;75.94;96453.69;5051425;28;20201;-74
2020/12/18 05:36:26;;;;;;;6.63;5.87;;;;;;;4.48;75.93;96459.63;5092823;28;20227;-75
2020/12/18 05:38:53;;;;;;;6.10;5.60;;;;;;;4.38;76.33;96457.91;5096235;28;20204;-75
2020/12/18 05:41:22;;;;;;;6.20;5.60;;;;;;;4.45;76.03;96459.03;5077980;28;20196;-83
2020/12/18 05:43:48;;;;;;;10.07;9.03;;;;;;;4.42;75.98;96462.66;5074933;28;20760;-74
2020/12/18 05:46:20;;;;;;;6.57;5.97;;;;;;;4.46;76.02;96468.31;5086755;28;20217;-75
2020/12/18 05:48:54;;;;;;;6.13;5.53;;;;;;;4.53;75.76;96469.47;5075159;28;20231;-74
2020/12/18 05:51:28;;;;;;;5.83;5.33;;;;;;;4.55;74.87;96472.72;5075761;28;20234;-77
2020/12/18 05:54:11;;;;;;;6.30;5.70;;;;;;;4.46;75.10;96476.75;5075226;28;20205;-75
2020/12/18 05:56:38;;;;;;;7.10;6.40;;;;;;;4.33;76.24;96473.53;5074569;28;20201;-75
2020/12/18 05:59:10;;;;;;;6.40;5.80;;;;;;;4.38;75.63;96474.00;5075603;28;20204;-75
2020/12/18 06:01:40;;;;;;;6.70;6.10;;;;;;;4.30;75.89;96471.22;5075525;28;20201;-74
2020/12/18 06:04:15;;;;;;;7.10;6.40;;;;;;;4.31;75.53;96472.84;5074698;28;20582;-75
2020/12/18 06:06:44;;;;;;;6.60;6.00;;;;;;;4.28;75.76;96479.91;5074935;28;20196;-76
2020/12/18 06:09:11;;;;;;;6.33;5.73;;;;;;;4.27;75.42;96478.28;5074687;28;20220;-75
2020/12/18 06:11:37;;;;;;;6.63;6.03;;;;;;;4.12;75.79;96482.78;5074739;28;20204;-75
2020/12/18 06:14:05;;;;;;;6.60;6.00;;;;;;;4.09;76.15;96486.38;5074026;28;20228;-73
2020/12/18 06:16:33;;;;;;;7.17;6.47;;;;;;;4.01;76.82;96480.25;5074989;28;20204;-75
2020/12/18 06:19:04;;;;;;;6.17;5.67;;;;;;;4.02;76.71;96479.31;5074966;28;20223;-75
2020/12/18 06:21:30;;;;;;;7.23;6.10;;;;;;;3.93;77.20;96485.91;5075078;28;20289;-75
2020/12/18 06:23:57;;;;;;;6.87;6.17;;;;;;;3.78;78.03;96474.28;5115970;22;20321;-77
2020/12/18 06:26:24;;;;;;;7.10;6.50;;;;;;;3.77;79.57;96477.75;5116896;28;20207;-78
2020/12/18 06:28:51;;;;;;;23.10;19.13;;;;;;;3.82;78.00;96478.25;5117085;28;20223;-77
2020/12/18 06:31:26;;;;;;;14.00;12.03;;;;;;;3.85;77.68;96478.00;5115954;28;20217;-77
2020/12/18 06:33:53;;;;;;;7.93;7.10;;;;;;;3.92;77.18;96473.28;5115332;28;20741;-77
2020/12/18 06:36:57;;;;;;;7.50;6.80;;;;;;;3.98;76.53;96467.72;5115134;28;20204;-75
2020/12/18 06:39:26;;;;;;;6.30;5.70;;;;;;;3.95;75.61;96471.31;5115321;28;20203;-75
2020/12/18 06:42:18;;;;;;;7.20;6.50;;;;;;;3.55;77.95;96468.34;5115506;28;20207;-76
2020/12/18 06:44:47;;;;;;;6.63;6.03;;;;;;;3.61;78.05;96477.28;5114631;28;20199;-75
2020/12/18 06:47:17;;;;;;;7.10;6.40;;;;;;;3.64;77.46;96475.31;5114891;28;20579;-77
2020/12/18 06:50:06;;;;;;;6.80;6.13;;;;;;;3.59;77.66;96481.66;5115393;28;20268;-75
2020/12/18 06:52:40;;;;;;;6.87;6.23;;;;;;;3.67;77.47;96482.72;5115205;28;20219;-75
2020/12/18 06:55:08;;;;;;;8.53;7.67;;;;;;;3.80;77.12;96487.72;5114706;28;20200;-76
2020/12/18 06:57:34;;;;;;;13.07;11.57;;;;;;;3.85;77.33;96495.03;5114948;28;20335;-75
2020/12/18 07:00:28;;;;;;;9.30;8.40;;;;;;;3.97;76.37;96499.22;5114787;27;20739;-75
2020/12/18 07:02:55;;;;;;;6.47;5.87;;;;;;;3.90;76.48;96488.66;5114976;28;20230;-76
2020/12/18 07:05:32;;;;;;;6.40;5.80;;;;;;;3.95;76.17;96495.97;5114616;28;20834;-75
2020/12/18 07:07:59;;;;;;;6.93;6.23;;;;;;;3.99;76.42;96492.28;5114806;28;20226;-75
2020/12/18 07:10:27;;;;;;;6.23;5.63;;;;;;;4.07;75.65;96493.31;5114582;28;20978;-75
2020/12/18 07:12:56;;;;;;;8.07;6.37;;;;;;;4.13;75.71;96500.53;5114453;28;20306;-75
2020/12/18 07:15:22;;;;;;;6.87;6.27;;;;;;;4.06;75.20;96501.06;5114393;28;20231;-75
2020/12/18 07:17:51;;;;;;;6.53;5.93;;;;;;;3.94;75.73;96502.00;5114802;28;20227;-75
2020/12/18 07:20:17;;;;;;;6.93;6.27;;;;;;;3.97;75.78;96499.22;5114279;28;20204;-76
2020/12/18 07:22:42;;;;;;;6.50;5.90;;;;;;;3.96;75.80;96500.16;5114028;28;20238;-76
2020/12/18 07:25:12;;;;;;;28.23;23.03;;;;;;;4.02;76.39;96492.06;5114220;28;20211;-75
2020/12/18 07:27:39;;;;;;;16.77;13.13;;;;;;;4.56;100.00;96494.75;5114297;28;20223;-74
2020/12/18 07:30:09;;;;;;;8.50;7.33;;;;;;;4.99;98.01;96489.69;5114468;28;20210;-75
2020/12/18 07:32:36;;;;;;;7.60;5.30;;;;;;;5.33;88.89;96484.47;5114361;27;20215;-75
2020/12/18 07:35:05;;;;;;;6.80;6.10;;;;;;;5.37;83.16;96483.31;5114241;28;20207;-75
2020/12/18 07:37:34;;;;;;;6.50;5.90;;;;;;;5.56;86.67;96488.56;5114086;28;20735;-75
2020/12/18 07:40:00;;;;;;;7.17;6.47;;;;;;;5.53;74.57;96489.63;5114012;28;20203;-76
2020/12/18 07:42:26;;;;;;;7.80;6.30;;;;;;;5.25;73.79;96484.25;5114092;28;20195;-74
2020/12/18 07:45:06;;;;;;;7.47;6.20;;;;;;;5.08;73.85;96490.69;5113801;28;20206;-75
2020/12/18 07:47:38;;;;;;;7.13;5.97;;;;;;;4.98;74.28;96490.63;5113929;28;20219;-73
2020/12/18 07:50:06;;;;;;;7.17;6.07;;;;;;;4.96;74.39;96479.72;5114105;28;20203;-76
2020/12/18 07:52:34;;;;;;;7.07;6.37;;;;;;;4.80;75.02;96489.50;5114180;28;20223;-74
2020/12/18 07:55:00;;;;;;;8.90;6.50;;;;;;;4.75;75.90;96484.75;5113483;28;20242;-76
2020/12/18 07:57:26;;;;;;;7.03;6.33;;;;;;;4.76;76.43;96472.81;5113706;28;20200;-75
2020/12/18 08:00:06;;;;;;;7.20;6.50;;;;;;;4.85;76.27;96474.63;5113382;28;20730;-76
2020/12/18 08:02:33;;;;;;;7.40;6.70;;;;;;;4.93;76.07;96477.41;5113168;28;20227;-75
2020/12/18 08:05:01;;;;;;;8.33;6.70;;;;;;;5.04;75.61;96474.81;5113695;28;20210;-75
2020/12/18 08:07:29;;;;;;;7.80;6.87;;;;;;;5.21;76.03;96479.41;5113514;28;20310;-75
2020/12/18 08:10:00;;;;;;;8.40;6.60;;;;;;;5.30;75.26;96479.63;5113592;28;20299;-77
2020/12/18 08:12:29;;;;;;;7.57;6.87;;;;;;;5.40;75.28;96478.75;5113317;28;20666;-76
2020/12/18 08:15:13;;;;;;;7.70;6.97;;;;;;;5.55;74.53;96477.53;5113047;28;20198;-75
2020/12/18 08:17:41;;;;;;;7.13;6.50;;;;;;;5.68;73.96;96482.47;5113389;28;20201;-75
2020/12/18 08:20:08;;;;;;;7.17;6.47;;;;;;;5.85;73.71;96474.22;5113388;28;20688;-75
2020/12/18 08:22:39;;;;;;;7.43;6.73;;;;;;;6.00;72.84;96473.94;5113115;28;20215;-77
2020/12/18 08:25:08;;;;;;;12.97;8.90;;;;;;;6.13;72.88;96474.56;5112956;28;20213;-75
2020/12/18 08:27:39;;;;;;;11.30;10.10;;;;;;;6.19;71.69;96466.34;5112668;28;20223;-74
2020/12/18 08:30:07;;;;;;;8.77;7.07;;;;;;;6.28;71.68;96470.72;5113349;28;20218;-75
2020/12/18 08:32:37;;;;;;;7.90;6.53;;;;;;;6.39;71.33;96464.69;5113249;28;20574;-74
2020/12/18 08:35:05;;;;;;;8.73;6.90;;;;;;;6.48;71.30;96467.31;5112772;28;20271;-75
2020/12/18 08:37:32;;;;;;;7.73;6.93;;;;;;;6.49;70.51;96466.38;5112833;28;20207;-75
2020/12/18 08:39:58;;;;;;;10.10;7.20;;;;;;;6.56;71.12;96458.97;5112742;28;20195;-75
2020/12/18 08:42:24;;;;;;;7.50;6.80;;;;;;;6.54;70.97;96459.09;5112833;28;20569;-76
2020/12/18 08:44:50;;;;;;;7.50;6.80;;;;;;;6.56;70.89;96457.22;5112921;28;20214;-75
2020/12/18 08:47:18;;;;;;;8.37;6.83;;;;;;;6.67;70.48;96460.63;5112708;28;20286;-74
2020/12/18 08:49:45;;;;;;;7.53;6.77;;;;;;;6.74;70.27;96459.16;5113009;28;20203;-75
2020/12/18 08:52:11;;;;;;;23.93;19.40;;;;;;;6.76;70.57;96455.50;5087960;28;20219;-74
2020/12/18 08:54:42;;;;;;;8.67;7.77;;;;;;;6.89;69.94;96465.53;5090383;28;20232;-74
2020/12/18 08:57:11;;;;;;;8.07;7.20;;;;;;;7.00;69.75;96460.28;5088258;28;20204;-76
2020/12/18 08:59:37;;;;;;;8.70;7.00;;;;;;;7.02;69.46;96460.97;5090678;28;20200;-76
2020/12/18 09:02:03;;;;;;;8.67;7.27;;;;;;;7.11;69.17;96455.06;5091841;28;20211;-76
2020/12/18 09:04:29;;;;;;;7.40;6.70;;;;;;;7.19;68.50;96459.50;5091585;28;20630;-76
2020/12/18 09:06:56;;;;;;;7.20;6.50;;;;;;;7.33;68.94;96469.34;5091606;28;20224;-76
2020/12/18 09:09:21;;;;;;;7.57;6.40;;;;;;;7.46;68.36;96469.09;5090685;28;20227;-76
2020/12/18 09:11:49;;;;;;;7.53;6.80;;;;;;;7.56;67.97;96468.13;5091140;28;20664;-75
2020/12/18 09:14:30;;;;;;;7.20;6.50;;;;;;;7.74;67.06;96465.69;5092202;28;20591;-74
2020/12/18 09:16:56;;;;;;;7.93;6.77;;;;;;;7.89;66.67;96460.91;5089300;28;20662;-74
2020/12/18 09:19:22;;;;;;;9.83;6.70;;;;;;;7.96;65.85;96454.31;5091905;28;20211;-76
2020/12/18 09:21:49;;;;;;;7.83;6.90;;;;;;;8.07;65.44;96454.16;5091889;28;20208;-74
2020/12/18 09:24:22;;;;;;;9.80;6.60;;;;;;;8.09;65.60;96449.66;5090878;28;20239;-74
2020/12/18 09:26:48;;;;;;;8.40;6.60;;;;;;;8.20;66.08;96441.00;5091790;28;20200;-74
2020/12/18 09:29:17;;;;;;;9.27;6.43;;;;;;;8.42;64.43;96443.25;5091905;28;20227;-74
2020/12/18 09:31:43;;;;;;;7.93;6.67;;;;;;;8.57;64.99;96443.59;5092147;28;20204;-77
2020/12/18 09:34:13;;;;;;;10.50;6.97;;;;;;;8.49;63.71;96439.16;5091951;28;20726;-74
2020/12/18 09:36:39;;;;;;;7.67;6.33;;;;;;;8.50;63.66;96445.91;5092034;28;20199;-74
2020/12/18 09:39:05;;;;;;;7.67;6.70;;;;;;;8.50;63.95;96439.97;5091725;28;20196;-74
2020/12/18 09:41:32;;;;;;;31.93;26.37;;;;;;;8.65;64.12;96446.25;5091831;28;20200;-75
2020/12/18 09:43:58;;;;;;;12.87;8.63;;;;;;;8.60;62.82;96430.47;5091697;28;20226;-74
2020/12/18 09:46:24;;;;;;;8.10;7.30;;;;;;;8.55;63.78;96430.88;5091859;28;20574;-73
2020/12/18 09:48:50;;;;;;;6.70;6.00;;;;;;;8.61;64.03;96426.94;5091643;28;20281;-75
2020/12/18 09:51:18;;;;;;;8.57;6.23;;;;;;;8.52;63.60;96418.34;5091731;28;20207;-74
2020/12/18 09:53:44;;;;;;;7.10;6.37;;;;;;;8.64;63.60;96431.81;5091584;28;20224;-76
2020/12/18 09:56:11;;;;;;;5.87;5.37;;;;;;;8.48;62.82;96431.59;5091685;28;20208;-75
2020/12/18 09:58:38;;;;;;;6.50;5.77;;;;;;;8.56;63.00;96429.94;5091794;28;20221;-74
2020/12/18 10:01:05;;;;;;;6.77;6.00;;;;;;;8.69;63.19;96432.16;5091612;28;20208;-75
2020/12/18 10:03:31;;;;;;;6.77;5.67;;;;;;;8.65;62.03;96429.09;5091856;28;20224;-74
2020/12/18 10:05:57;;;;;;;8.00;6.60;;;;;;;8.66;61.98;96424.75;5091541;28;20231;-77
2020/12/18 10:08:23;;;;;;;6.43;5.83;;;;;;;8.59;61.94;96431.41;5091525;28;20252;-74
2020/12/18 10:10:49;;;;;;;9.03;6.30;;;;;;;8.55;63.87;96423.19;5091508;28;20212;-73
2020/12/18 10:13:15;;;;;;;6.93;6.30;;;;;;;8.78;63.93;96418.47;5091279;28;20235;-74
2020/12/18 10:15:42;;;;;;;7.50;6.67;;;;;;;8.93;62.21;96422.16;5091276;28;20695;-74
2020/12/18 10:18:08;;;;;;;6.97;6.27;;;;;;;8.94;62.25;96422.97;5091221;28;20677;-74
2020/12/18 10:20:34;;;;;;;7.10;6.40;;;;;;;8.87;61.61;96425.28;5091601;28;20214;-74
2020/12/18 10:23:00;;;;;;;7.07;5.20;;;;;;;8.79;61.02;96419.28;5093991;28;20231;-74
2020/12/18 10:25:26;;;;;;;6.23;5.23;;;;;;;8.71;61.03;96412.28;5095068;28;20323;-74
2020/12/18 10:27:52;;;;;;;5.50;5.00;;;;;;;8.79;61.46;96414.94;5094861;28;20234;-74
2020/12/18 10:30:18;;;;;;;7.10;6.40;;;;;;;8.84;61.28;96406.81;5094959;28;20201;-74
2020/12/18 10:32:45;;;;;;;13.43;9.97;;;;;;;8.87;62.03;96404.75;5094800;28;20571;-73
2020/12/18 10:35:11;;;;;;;7.30;6.50;;;;;;;9.07;61.85;96404.59;5094643;28;20239;-74
2020/12/18 10:37:37;;;;;;;10.63;6.93;;;;;;;9.25;62.04;96402.84;5095004;28;20203;-75
2020/12/18 10:40:06;;;;;;;7.90;7.00;;;;;;;9.44;62.88;96402.66;5094957;28;20196;-71
2020/12/18 10:42:31;;;;;;;12.97;7.37;;;;;;;9.58;63.47;96398.78;5094748;28;20200;-74
2020/12/18 10:44:57;;;;;;;10.17;7.63;;;;;;;9.55;63.32;96396.50;5094547;28;20222;-74
2020/12/18 10:47:23;;;;;;;9.97;8.17;;;;;;;9.55;63.01;96387.03;5094571;28;20196;-74
2020/12/18 10:49:50;;;;;;;10.40;8.37;;;;;;;9.54;63.63;96395.69;5095022;28;20233;-75
2020/12/18 10:52:16;;;;;;;9.80;8.20;;;;;;;9.55;63.90;96387.03;5094213;28;20207;-75
2020/12/18 10:54:42;;;;;;;16.37;8.33;;;;;;;9.64;63.07;96387.88;5093925;28;20200;-74
2020/12/18 10:57:09;;;;;;;9.63;7.53;;;;;;;9.77;63.13;96383.16;5094654;28;20203;-74
2020/12/18 10:59:35;;;;;;;11.47;7.50;;;;;;;9.90;62.82;96380.97;5094452;28;20200;-74
2020/12/18 11:02:02;;;;;;;17.90;12.07;;;;;;;9.95;62.35;96393.38;5094628;28;20200;-74
2020/12/18 11:04:28;;;;;;;9.30;8.10;;;;;;;9.87;62.12;96390.75;5094380;28;20230;-74
2020/12/18 11:06:55;;;;;;;14.83;9.57;;;;;;;9.96;62.74;96387.28;5094364;28;20251;-75
2020/12/18 11:09:21;;;;;;;9.20;7.47;;;;;;;10.05;62.76;96386.34;5094000;28;20220;-74
2020/12/18 11:11:50;;;;;;;8.80;7.90;;;;;;;10.16;62.48;96382.72;5094501;28;20310;-74
2020/12/18 11:14:16;;;;;;;11.73;7.30;;;;;;;10.20;61.50;96381.47;5093616;28;20216;-75
2020/12/18 11:16:42;;;;;;;8.27;7.47;;;;;;;10.17;61.56;96377.41;5094151;28;20200;-75
2020/12/18 11:19:08;;;;;;;11.00;7.47;;;;;;;10.20;61.46;96378.91;5093939;28;20192;-76
2020/12/18 11:21:34;;;;;;;11.17;7.20;;;;;;;10.22;61.55;96376.97;5094064;28;20578;-75
2020/12/18 11:24:01;;;;;;;10.43;7.47;;;;;;;10.25;61.06;96372.31;5093332;28;20239;-75
2020/12/18 11:26:27;;;;;;;7.93;7.13;;;;;;;10.29;61.28;96365.91;5094496;28;20211;-75
2020/12/18 11:28:53;;;;;;;9.67;7.23;;;;;;;10.21;61.01;96371.00;5093688;28;20590;-75
2020/12/18 11:31:19;;;;;;;19.23;15.90;;;;;;;10.26;61.83;96361.06;5093878;28;20286;-74
2020/12/18 11:33:45;;;;;;;16.57;14.60;;;;;;;10.29;61.78;96362.53;5092557;28;20224;-75
2020/12/18 11:36:11;;;;;;;10.50;9.50;;;;;;;10.37;61.84;96362.56;5093623;28;20204;-75
2020/12/18 11:38:37;;;;;;;8.83;7.30;;;;;;;10.47;61.65;96362.41;5094099;28;20196;-75
2020/12/18 11:41:04;;;;;;;8.53;6.63;;;;;;;10.54;61.60;96366.00;5093840;28;20235;-74